createdAt,value
2023-04-28T00:02:41.351Z,28.00
2023-04-28T00:05:15.656Z,27.75
2023-04-28T00:08:02.310Z,24.67
2023-04-28T00:10:37.421Z,22.35
2023-04-28T00:13:24.303Z,21.50
2023-04-28T00:16:04.327Z,22.45
2023-04-28T00:18:51.333Z,23.38
2023-04-28T00:21:31.275Z,23.55
2023-04-28T00:24:18.300Z,22.90
2023-04-28T00:26:51.436Z,28.67
2023-04-28T00:29:38.304Z,26.17
2023-04-28T00:32:18.301Z,29.17
2023-04-28T00:35:05.319Z,25.45
2023-04-28T00:37:50.301Z,23.75
2023-04-28T00:40:44.300Z,24.55
2023-04-28T00:43:24.311Z,23.40
2023-04-28T00:46:18.390Z,21.42
2023-04-28T00:49:05.330Z,27.70
2023-04-28T00:51:38.436Z,23.02
2023-04-28T00:54:25.264Z,21.60
2023-04-28T00:57:05.290Z,21.33
2023-04-28T00:59:52.343Z,21.73
2023-04-28T01:02:25.914Z,24.60
2023-04-28T01:05:12.302Z,24.23
2023-04-28T01:07:52.338Z,23.35
2023-04-28T01:10:39.292Z,23.92
2023-04-28T01:13:19.330Z,23.23
2023-04-28T01:16:13.385Z,20.70
2023-04-28T01:19:07.331Z,25.42
2023-04-28T01:21:54.384Z,23.08
2023-04-28T01:24:34.307Z,19.80
2023-04-28T01:27:30.306Z,20.95
2023-04-28T01:30:24.303Z,24.15
2023-04-28T01:33:18.302Z,23.33
2023-04-28T01:36:12.306Z,24.65
2023-04-28T01:38:59.331Z,24.02
2023-04-28T01:41:36.746Z,22.40
2023-04-28T01:44:23.330Z,19.50
2023-04-28T01:46:56.481Z,19.25
2023-04-28T01:49:43.337Z,20.35
2023-04-28T01:52:16.453Z,19.35
2023-04-28T01:55:03.324Z,20.98
2023-04-28T01:57:36.492Z,25.17
2023-04-28T02:00:23.331Z,20.58
2023-04-28T02:02:56.550Z,21.45
2023-04-28T02:05:44.320Z,21.08
2023-04-28T02:08:24.307Z,21.30
2023-04-28T02:11:18.315Z,21.85
2023-04-28T02:14:05.458Z,21.48
2023-04-28T02:16:39.444Z,21.85
2023-04-28T02:19:26.305Z,26.73
2023-04-28T02:21:59.427Z,21.83
2023-04-28T02:24:46.303Z,21.38
2023-04-28T02:27:19.446Z,20.02
2023-04-28T02:30:10.309Z,20.90
2023-04-28T02:32:43.497Z,20.92
2023-04-28T02:35:30.347Z,21.33
2023-04-28T02:38:06.589Z,21.95
2023-04-28T02:40:53.326Z,21.00
2023-04-28T02:43:26.495Z,23.45
2023-04-28T02:46:13.362Z,25.27
2023-04-28T02:48:46.453Z,22.42
2023-04-28T02:51:33.334Z,19.35
2023-04-28T02:54:06.439Z,25.63
2023-04-28T02:56:53.390Z,19.67
2023-04-28T02:59:34.353Z,20.25
2023-04-28T03:02:22.371Z,22.83
2023-04-28T03:04:55.641Z,20.05
2023-04-28T03:07:42.322Z,19.33
2023-04-28T03:10:24.338Z,19.60
2023-04-28T03:13:11.348Z,20.08
2023-04-28T03:15:51.361Z,21.23
2023-04-28T03:18:45.386Z,19.10
2023-04-28T03:21:39.348Z,20.13
2023-04-28T03:24:33.345Z,20.95
2023-04-28T03:27:20.320Z,22.27
2023-04-28T03:29:53.448Z,19.92
2023-04-28T03:32:40.408Z,21.27
2023-04-28T03:35:13.753Z,21.60
2023-04-28T03:38:00.337Z,21.13
2023-04-28T03:40:40.346Z,21.42
2023-04-28T03:43:27.335Z,22.30
2023-04-28T03:46:14.392Z,20.73
2023-04-28T03:49:11.382Z,18.98
2023-04-28T03:51:58.336Z,25.63
2023-04-28T03:54:31.476Z,21.65
2023-04-28T03:57:18.360Z,21.85
2023-04-28T03:59:52.100Z,20.30
2023-04-28T04:02:38.487Z,19.88
2023-04-28T04:05:19.443Z,21.20
2023-04-28T04:08:06.483Z,24.27
2023-04-28T04:10:39.434Z,22.95
2023-04-28T04:13:26.392Z,19.67
2023-04-28T04:15:59.573Z,19.17
2023-04-28T04:18:46.354Z,21.33
2023-04-28T04:21:19.457Z,23.73
2023-04-28T04:24:06.320Z,19.08
2023-04-28T04:26:39.544Z,22.70
2023-04-28T04:29:26.353Z,19.58
2023-04-28T04:32:06.366Z,22.35
2023-04-28T04:35:00.357Z,22.55
2023-04-28T04:37:54.332Z,22.83
2023-04-28T04:40:48.379Z,20.98
2023-04-28T04:43:42.350Z,21.08
2023-04-28T04:46:36.380Z,23.50
2023-04-28T04:49:23.375Z,25.83
2023-04-28T04:51:59.472Z,23.98
2023-04-28T04:54:46.375Z,21.38
2023-04-28T04:57:19.537Z,21.35
2023-04-28T05:00:06.372Z,21.40
2023-04-28T05:02:40.625Z,19.88
2023-04-28T05:05:27.452Z,23.55
2023-04-28T05:08:00.518Z,21.40
2023-04-28T05:10:47.365Z,22.30
2023-04-28T05:13:23.478Z,21.98
2023-04-28T05:16:10.442Z,21.58
2023-04-28T05:18:43.468Z,21.65
2023-04-28T05:21:30.412Z,20.33
2023-04-28T05:24:10.372Z,22.38
2023-04-28T05:26:58.381Z,19.45
2023-04-28T05:29:38.376Z,19.40
2023-04-28T05:32:32.449Z,20.40
2023-04-28T05:35:19.388Z,19.00
2023-04-28T05:37:52.523Z,20.50
2023-04-28T05:40:39.370Z,20.02
2023-04-28T05:43:19.387Z,22.55
2023-04-28T05:46:28.328Z,24.48
2023-04-28T05:49:23.380Z,24.67
2023-04-28T05:52:10.373Z,23.75
2023-04-28T05:54:43.516Z,23.42
2023-04-28T05:57:32.037Z,19.23
2023-04-28T06:00:09.490Z,24.02
2023-04-28T06:02:56.514Z,19.98
2023-04-28T06:05:29.778Z,23.10
2023-04-28T06:08:16.389Z,20.90
2023-04-28T06:10:49.531Z,20.17
2023-04-28T06:13:36.395Z,20.45
2023-04-28T06:16:10.532Z,19.38
2023-04-28T06:18:57.407Z,23.13
2023-04-28T06:21:38.378Z,22.88
2023-04-28T06:24:25.422Z,22.85
2023-04-28T06:27:05.415Z,21.58
2023-04-28T06:29:59.402Z,20.45
2023-04-28T06:32:46.460Z,20.85
2023-04-28T06:35:27.395Z,21.52
2023-04-28T06:38:21.396Z,20.77
2023-04-28T06:41:08.429Z,21.23
2023-04-28T06:43:41.640Z,18.17
2023-04-28T06:46:35.445Z,22.17
2023-04-28T06:49:29.413Z,23.05
2023-04-28T06:52:16.430Z,23.73
2023-04-28T06:54:56.413Z,18.75
2023-04-28T06:57:50.411Z,21.00
2023-04-28T07:00:37.570Z,18.42
2023-04-28T07:03:15.677Z,18.32
2023-04-28T07:06:02.425Z,16.40
2023-04-28T07:08:42.399Z,18.23
2023-04-28T07:11:30.501Z,18.65
2023-04-28T07:14:03.551Z,19.50
2023-04-28T07:16:50.531Z,16.42
2023-04-28T07:19:23.557Z,19.10
2023-04-28T07:22:10.456Z,17.30
2023-04-28T07:24:50.463Z,15.93
2023-04-28T07:27:44.420Z,15.55
2023-04-28T07:30:31.512Z,15.98
2023-04-28T07:33:11.587Z,14.82
2023-04-28T07:35:59.444Z,15.00
2023-04-28T07:38:33.112Z,16.33
2023-04-28T07:41:19.450Z,15.23
2023-04-28T07:43:59.450Z,13.18
2023-04-28T07:46:53.422Z,15.52
2023-04-28T07:49:47.471Z,13.38
2023-04-28T07:52:41.437Z,12.90
2023-04-28T07:55:28.440Z,15.15
2023-04-28T07:58:02.547Z,15.00
2023-04-28T08:00:49.423Z,14.45
2023-04-28T08:03:22.814Z,15.10
2023-04-28T08:06:09.561Z,12.82
2023-04-28T08:08:49.513Z,15.18
2023-04-28T08:11:36.569Z,14.65
2023-04-28T08:14:16.708Z,15.82
2023-04-28T08:17:03.482Z,14.25
2023-04-28T08:19:36.607Z,15.50
2023-04-28T08:22:23.467Z,15.55
2023-04-28T08:24:56.636Z,15.55
2023-04-28T08:27:46.523Z,19.70
2023-04-28T08:30:19.817Z,15.70
2023-04-28T08:33:07.495Z,14.27
2023-04-28T08:35:40.610Z,13.30
2023-04-28T08:38:29.460Z,16.95
2023-04-28T08:41:02.563Z,13.25
2023-04-28T08:43:49.467Z,18.75
2023-04-28T08:46:24.631Z,14.68
2023-04-28T08:49:15.480Z,15.68
2023-04-28T08:51:53.563Z,14.38
2023-04-28T08:54:42.489Z,15.10
2023-04-28T08:57:17.632Z,17.48
2023-04-28T09:00:05.488Z,14.15
2023-04-28T09:02:42.057Z,14.15
2023-04-28T09:05:29.683Z,12.68
2023-04-28T09:08:02.659Z,14.30
2023-04-28T09:10:49.486Z,14.55
2023-04-28T09:13:33.343Z,12.98
2023-04-28T09:16:20.554Z,13.15
2023-04-28T09:19:03.612Z,13.20
2023-04-28T09:22:07.764Z,14.15
2023-04-28T09:24:47.564Z,13.40
2023-04-28T09:27:35.504Z,13.50
2023-04-28T09:30:16.497Z,13.10
2023-04-28T09:33:19.570Z,13.25
2023-04-28T09:36:06.479Z,12.57
2023-04-28T09:38:57.527Z,13.52
2023-04-28T09:41:58.485Z,13.00
2023-04-28T09:44:45.498Z,13.55
2023-04-28T09:47:34.544Z,13.82
2023-04-28T09:50:30.529Z,13.90
2023-04-28T09:53:29.519Z,12.88
2023-04-28T09:56:26.506Z,12.60
2023-04-28T09:59:13.510Z,12.07
2023-04-28T10:01:47.701Z,12.40
2023-04-28T10:04:37.657Z,15.80
2023-04-28T10:07:11.224Z,12.52
2023-04-28T10:09:58.504Z,12.80
2023-04-28T10:12:39.110Z,14.68
2023-04-28T10:15:25.616Z,13.52
2023-04-28T10:18:00.708Z,13.10
2023-04-28T10:20:53.522Z,14.15
2023-04-28T10:23:51.934Z,13.55
2023-04-28T10:27:00.532Z,12.77
2023-04-28T10:29:34.714Z,12.65
2023-04-28T10:32:30.548Z,11.02
2023-04-28T10:35:28.648Z,15.40
2023-04-28T10:38:23.566Z,12.80
2023-04-28T10:41:09.564Z,12.13
2023-04-28T10:44:03.552Z,12.60
2023-04-28T10:47:15.536Z,14.00
2023-04-28T10:50:09.554Z,12.40
2023-04-28T10:52:57.536Z,11.93
2023-04-28T10:55:39.936Z,12.93
2023-04-28T10:58:26.555Z,11.68
2023-04-28T11:00:59.674Z,11.27
2023-04-28T11:04:05.861Z,11.38
2023-04-28T11:06:42.701Z,11.90
2023-04-28T11:09:38.557Z,12.10
2023-04-28T11:12:13.511Z,11.88
2023-04-28T11:15:00.553Z,14.27
2023-04-28T11:17:54.607Z,12.13
2023-04-28T11:20:49.551Z,11.45
2023-04-28T11:23:36.609Z,12.15
2023-04-28T11:26:09.701Z,12.68
2023-04-28T11:29:02.562Z,11.85
2023-04-28T11:31:35.802Z,12.93
2023-04-28T11:34:27.558Z,13.35
2023-04-28T11:37:00.825Z,13.45
2023-04-28T11:39:47.558Z,12.88
2023-04-28T11:42:27.603Z,12.93
2023-04-28T11:45:26.562Z,13.15
2023-04-28T11:48:35.583Z,11.10
2023-04-28T11:51:51.573Z,12.38
2023-04-28T11:54:38.577Z,13.80
2023-04-28T11:57:12.752Z,12.10
2023-04-28T11:59:59.574Z,13.45
2023-04-28T12:02:38.615Z,13.85
2023-04-28T12:05:28.631Z,12.40
2023-04-28T12:08:08.563Z,13.23
2023-04-28T12:11:20.354Z,14.00
2023-04-28T12:14:17.575Z,12.98
2023-04-28T12:17:11.606Z,12.23
2023-04-28T12:20:01.608Z,11.52
2023-04-28T12:22:35.794Z,11.40
2023-04-28T12:25:24.600Z,12.98
2023-04-28T12:28:15.324Z,11.90
2023-04-28T12:31:11.620Z,12.73
2023-04-28T12:33:44.958Z,13.20
2023-04-28T12:36:31.620Z,11.93
2023-04-28T12:39:11.613Z,11.82
2023-04-28T12:42:06.728Z,14.27
2023-04-28T12:45:00.605Z,13.05
2023-04-28T12:47:54.624Z,11.75
2023-04-28T12:50:48.610Z,12.60
2023-04-28T12:53:42.648Z,12.15
2023-04-28T12:56:30.630Z,13.55
2023-04-28T12:59:11.600Z,13.73
2023-04-28T13:02:05.645Z,17.27
2023-04-28T13:04:55.786Z,13.45
2023-04-28T13:07:35.613Z,13.02
2023-04-28T13:10:30.618Z,14.88
2023-04-28T13:13:24.643Z,13.85
2023-04-28T13:16:12.683Z,12.98
2023-04-28T13:18:45.759Z,13.93
2023-04-28T13:21:33.636Z,13.88
2023-04-28T13:24:13.632Z,13.90
2023-04-28T13:27:02.656Z,12.82
2023-04-28T13:29:43.630Z,12.77
2023-04-28T13:32:30.649Z,13.75
2023-04-28T13:35:10.635Z,13.50
2023-04-28T13:38:02.661Z,13.48
2023-04-28T13:40:42.647Z,12.82
2023-04-28T13:43:29.623Z,12.50
2023-04-28T13:46:14.684Z,11.85
2023-04-28T13:49:08.641Z,12.35
2023-04-28T13:51:55.622Z,11.88
2023-04-28T13:54:28.908Z,14.80
2023-04-28T13:57:15.655Z,12.90
2023-04-28T13:59:48.817Z,12.38
2023-04-28T14:02:36.575Z,11.85
2023-04-28T14:05:16.630Z,12.35
2023-04-28T14:08:03.659Z,13.25
2023-04-28T14:10:36.746Z,12.48
2023-04-28T14:13:24.689Z,12.23
2023-04-28T14:15:59.781Z,12.18
2023-04-28T14:18:46.670Z,13.25
2023-04-28T14:21:19.852Z,12.23
2023-04-28T14:24:06.661Z,11.48
2023-04-28T14:26:39.950Z,12.43
2023-04-28T14:29:26.640Z,13.85
2023-04-28T14:32:06.665Z,12.15
2023-04-28T14:35:03.653Z,13.80
2023-04-28T14:37:57.682Z,12.80
2023-04-28T14:40:51.663Z,14.32
2023-04-28T14:43:38.682Z,11.57
2023-04-28T14:46:11.939Z,11.82
2023-04-28T14:49:05.691Z,11.48
2023-04-28T14:51:59.667Z,13.85
2023-04-28T14:54:46.761Z,14.07
2023-04-28T14:57:20.322Z,12.63
2023-04-28T15:00:06.649Z,11.88
2023-04-28T15:02:47.787Z,19.38
2023-04-28T15:05:41.693Z,13.90
2023-04-28T15:08:30.024Z,13.52
2023-04-28T15:11:06.735Z,12.30
2023-04-28T15:13:53.695Z,13.50
2023-04-28T15:16:28.841Z,12.90
2023-04-28T15:19:15.714Z,16.13
2023-04-28T15:21:48.818Z,14.73
2023-04-28T15:24:35.680Z,13.00
2023-04-28T15:27:09.098Z,13.15
2023-04-28T15:29:57.767Z,13.90
2023-04-28T15:32:32.571Z,13.77
2023-04-28T15:35:19.722Z,13.88
2023-04-28T15:37:55.548Z,13.85
2023-04-28T15:40:42.684Z,14.13
2023-04-28T15:43:22.713Z,14.85
2023-04-28T15:46:23.780Z,14.15
2023-04-28T15:49:17.695Z,14.18
2023-04-28T15:52:11.701Z,12.82
2023-04-28T15:54:58.707Z,14.40
2023-04-28T15:57:31.896Z,14.90
2023-04-28T16:00:21.701Z,14.32
2023-04-28T16:02:55.109Z,15.32
2023-04-28T16:05:41.705Z,14.52
2023-04-28T16:08:16.755Z,15.27
2023-04-28T16:11:03.704Z,13.73
2023-04-28T16:13:43.821Z,16.65
2023-04-28T16:16:31.780Z,13.23
2023-04-28T16:19:04.832Z,11.75
2023-04-28T16:21:51.706Z,12.00
2023-04-28T16:24:25.219Z,12.40
2023-04-28T16:27:12.724Z,12.60
2023-04-28T16:29:46.102Z,11.30
2023-04-28T16:32:33.855Z,12.18
2023-04-28T16:35:11.202Z,11.95
2023-04-28T16:37:51.838Z,12.13
2023-04-28T16:40:31.920Z,13.85
2023-04-28T16:43:11.740Z,11.60
2023-04-28T16:45:52.001Z,12.63
2023-04-28T16:48:38.731Z,12.40
2023-04-28T16:51:18.732Z,11.55
2023-04-28T16:54:12.828Z,12.27
2023-04-28T16:57:06.735Z,12.55
2023-04-28T17:00:00.726Z,13.13
2023-04-28T17:02:47.864Z,12.10
2023-04-28T17:05:21.252Z,11.77
2023-04-28T17:08:07.760Z,11.07
2023-04-28T17:10:43.952Z,12.65
2023-04-28T17:13:30.720Z,13.18
2023-04-28T17:16:10.804Z,13.10
2023-04-28T17:19:05.423Z,13.90
2023-04-28T17:21:52.827Z,18.55
2023-04-28T17:24:26.068Z,12.52
2023-04-28T17:27:12.758Z,14.52
2023-04-28T17:29:53.347Z,13.90
2023-04-28T17:32:39.746Z,30.08
2023-04-28T17:35:21.802Z,29.80
2023-04-28T17:38:15.768Z,20.63
2023-04-28T17:41:02.860Z,23.25
2023-04-28T17:43:37.711Z,21.75
2023-04-28T17:46:24.813Z,15.38
2023-04-28T17:49:05.761Z,17.00
2023-04-28T17:51:59.758Z,13.73
2023-04-28T17:54:53.774Z,14.18
2023-04-28T17:57:40.757Z,13.35
2023-04-28T18:00:15.062Z,14.20
2023-04-28T18:03:02.793Z,13.95
2023-04-28T18:05:42.749Z,13.93
2023-04-28T18:08:36.957Z,13.95
2023-04-28T18:11:30.833Z,13.05
2023-04-28T18:14:17.770Z,12.48
2023-04-28T18:16:51.332Z,12.60
2023-04-28T18:19:37.802Z,17.75
2023-04-28T18:22:10.962Z,24.13
2023-04-28T18:24:57.773Z,22.05
2023-04-28T18:27:37.789Z,19.77
2023-04-28T18:30:24.773Z,19.33
2023-04-28T18:32:58.297Z,16.05
2023-04-28T18:35:46.731Z,18.58
2023-04-28T18:38:20.409Z,16.20
2023-04-28T18:41:08.828Z,16.20
2023-04-28T18:43:42.391Z,18.00
2023-04-28T18:46:28.919Z,17.02
2023-04-28T18:49:06.589Z,21.45
2023-04-28T18:51:53.863Z,15.43
2023-04-28T18:54:28.408Z,14.68
2023-04-28T18:57:15.780Z,17.00
2023-04-28T18:59:55.788Z,26.90
2023-04-28T19:02:49.946Z,23.27
2023-04-28T19:05:36.840Z,46.90
2023-04-28T19:08:17.811Z,27.30
2023-04-28T19:11:12.833Z,33.47
2023-04-28T19:14:01.793Z,24.20
2023-04-28T19:16:36.829Z,16.13
2023-04-28T19:19:23.813Z,25.42
2023-04-28T19:21:58.001Z,29.48
2023-04-28T19:24:44.831Z,31.27
2023-04-28T19:27:17.964Z,33.63
2023-04-28T19:30:08.855Z,43.15
2023-04-28T19:32:43.033Z,27.27
2023-04-28T19:35:29.843Z,24.30
2023-04-28T19:38:03.961Z,38.88
2023-04-28T19:40:51.805Z,42.05
2023-04-28T19:43:24.971Z,26.95
2023-04-28T19:46:11.941Z,24.65
2023-04-28T19:48:46.610Z,21.42
2023-04-28T19:51:34.836Z,20.98
2023-04-28T19:54:07.953Z,23.30
2023-04-28T19:56:55.808Z,27.10
2023-04-28T19:59:30.057Z,23.50
2023-04-28T20:02:16.895Z,30.42
2023-04-28T20:04:56.868Z,26.52
2023-04-28T20:07:56.220Z,43.30
2023-04-28T20:10:42.844Z,35.88
2023-04-28T20:13:17.954Z,37.80
2023-04-28T20:16:04.848Z,40.92
2023-04-28T20:18:38.239Z,42.55
2023-04-28T20:21:24.838Z,34.70
2023-04-28T20:24:04.840Z,43.17
2023-04-28T20:26:51.880Z,29.77
2023-04-28T20:29:25.306Z,38.15
2023-04-28T20:32:11.878Z,31.92
2023-04-28T20:34:45.041Z,27.45
2023-04-28T20:37:32.843Z,31.38
2023-04-28T20:40:06.722Z,33.33
2023-04-28T20:42:53.862Z,32.65
2023-04-28T20:45:41.896Z,42.00
2023-04-28T20:48:36.839Z,45.88
2023-04-28T20:51:23.942Z,47.10
2023-04-28T20:53:57.728Z,46.10
2023-04-28T20:56:44.861Z,39.00
2023-04-28T20:59:25.922Z,38.03
2023-04-28T21:02:19.978Z,31.40
2023-04-28T21:05:06.857Z,31.77
2023-04-28T21:07:39.971Z,30.65
2023-04-28T21:10:26.868Z,29.65
2023-04-28T21:12:59.970Z,35.70
2023-04-28T21:15:47.946Z,35.30
2023-04-28T21:18:21.084Z,35.63
2023-04-28T21:21:07.868Z,29.75
2023-04-28T21:23:41.061Z,30.25
2023-04-28T21:26:28.874Z,31.73
2023-04-28T21:29:02.161Z,32.00
2023-04-28T21:31:48.976Z,29.67
2023-04-28T21:34:21.998Z,33.90
2023-04-28T21:37:08.862Z,32.70
2023-04-28T21:39:42.035Z,38.22
2023-04-28T21:42:28.943Z,32.10
2023-04-28T21:45:08.861Z,27.65
2023-04-28T21:48:04.000Z,25.30
2023-04-28T21:50:57.871Z,29.73
2023-04-28T21:53:51.872Z,26.08
2023-04-28T21:56:38.872Z,27.50
2023-04-28T21:59:11.973Z,25.88
2023-04-28T22:01:58.876Z,22.40
2023-04-28T22:04:35.528Z,29.48
2023-04-28T22:07:21.929Z,22.95
2023-04-28T22:09:57.036Z,23.15
2023-04-28T22:12:43.870Z,28.40
2023-04-28T22:15:17.023Z,21.33
2023-04-28T22:18:04.918Z,20.98
2023-04-28T22:20:44.935Z,23.80
2023-04-28T22:23:38.942Z,28.75
2023-04-28T22:26:26.844Z,26.83
2023-04-28T22:29:00.284Z,27.15
2023-04-28T22:31:46.912Z,27.38
2023-04-28T22:34:20.012Z,24.40
2023-04-28T22:37:06.938Z,21.45
2023-04-28T22:39:42.759Z,22.13
2023-04-28T22:42:29.916Z,22.23
2023-04-28T22:45:04.432Z,23.13
2023-04-28T22:47:50.951Z,24.00
2023-04-28T22:50:30.869Z,26.80
2023-04-28T22:53:25.936Z,23.50
2023-04-28T22:56:19.920Z,21.95
2023-04-28T22:59:13.920Z,25.40
2023-04-28T23:02:01.010Z,24.40
2023-04-28T23:04:34.580Z,21.33
2023-04-28T23:07:21.914Z,20.55
2023-04-28T23:09:55.037Z,22.80
2023-04-28T23:12:41.919Z,20.42
2023-04-28T23:15:17.081Z,20.30
2023-04-28T23:18:03.950Z,20.05
2023-04-28T23:20:40.047Z,20.48
2023-04-28T23:23:26.954Z,18.30
2023-04-28T23:26:00.327Z,18.90
2023-04-28T23:28:46.946Z,20.10
2023-04-28T23:31:27.009Z,18.98
2023-04-28T23:34:13.920Z,19.42
2023-04-28T23:36:47.100Z,19.70
2023-04-28T23:39:36.941Z,18.65
2023-04-28T23:42:16.945Z,19.38
2023-04-28T23:45:10.990Z,18.02
2023-04-28T23:47:57.958Z,19.70
2023-04-28T23:50:31.046Z,20.98
2023-04-28T23:53:17.927Z,21.13
2023-04-28T23:55:51.032Z,27.08
2023-04-28T23:58:37.976Z,21.08
